Time;durP1;ratioP1;P1;durP2;ratioP2;P2;SDS_P1;SDS_P2;PMS_P1;PMS_P2;Temp;Humidity;BMP_temperature;BMP_pressure;BME280_temperature;BME280_humidity;BME280_pressure;Samples;Min_cycle;Max_cycle;Signal;HPM_P1;HPM_P2
2022/01/09 00:00:12;;;;;;;14.95;7.05;;;-3.00;94.90;;;;;;5095041;28;20437;-81
2022/01/09 00:02:38;;;;;;;15.85;8.60;;;-3.00;94.90;;;;;;5095044;28;20139;-81
2022/01/09 00:05:05;;;;;;;11.18;6.95;;;-3.00;94.80;;;;;;5095531;28;20078;-80
2022/01/09 00:07:30;;;;;;;10.77;8.43;;;-3.00;94.70;;;;;;5077050;28;20103;-80
2022/01/09 00:09:56;;;;;;;10.75;5.32;;;-3.10;94.70;;;;;;5097757;28;20440;-81
2022/01/09 00:12:23;;;;;;;15.82;8.05;;;-3.20;94.90;;;;;;5097699;28;20024;-82
2022/01/09 00:14:49;;;;;;;11.73;7.53;;;-3.30;95.00;;;;;;5095754;28;20016;-78
2022/01/09 00:17:15;;;;;;;10.95;7.38;;;-3.30;95.20;;;;;;5095457;28;20105;-80
2022/01/09 00:19:41;;;;;;;8.90;5.03;;;-3.30;95.30;;;;;;5099468;28;20020;-80
2022/01/09 00:22:08;;;;;;;14.15;6.85;;;-3.40;95.30;;;;;;5099733;28;20032;-81
2022/01/09 00:24:34;;;;;;;11.75;6.60;;;-3.40;95.40;;;;;;5095956;28;20477;-80
2022/01/09 00:26:59;;;;;;;12.63;7.07;;;-3.40;95.40;;;;;;5095555;28;20040;-80
2022/01/09 00:29:25;;;;;;;9.18;4.72;;;-3.50;95.40;;;;;;5096629;28;20474;-78
2022/01/09 00:31:51;;;;;;;14.38;7.90;;;-3.50;95.40;;;;;;5090419;28;20089;-80
2022/01/09 00:34:17;;;;;;;15.77;8.05;;;-3.50;95.50;;;;;;5107521;28;20070;-77
2022/01/09 00:36:43;;;;;;;13.52;6.72;;;-3.50;95.40;;;;;;5097201;28;20058;-79
2022/01/09 00:39:08;;;;;;;9.55;5.82;;;-3.50;95.30;;;;;;5095692;28;20057;-79
2022/01/09 00:41:34;;;;;;;8.38;5.50;;;-3.60;95.30;;;;;;5076364;28;20497;-80
2022/01/09 00:44:00;;;;;;;13.07;8.15;;;-3.70;95.40;;;;;;5094838;28;20431;-78
2022/01/09 00:46:26;;;;;;;11.90;6.50;;;-3.70;95.60;;;;;;5094501;28;20043;-80
2022/01/09 00:48:52;;;;;;;12.27;5.63;;;-3.70;95.60;;;;;;5094770;28;20419;-82
2022/01/09 00:51:18;;;;;;;9.00;5.07;;;-3.70;95.60;;;;;;5095341;28;20016;-79
2022/01/09 00:53:44;;;;;;;8.00;4.50;;;-3.80;95.60;;;;;;5095895;28;20109;-81
2022/01/09 00:56:10;;;;;;;14.90;6.95;;;-3.90;95.70;;;;;;5095143;28;20059;-80
2022/01/09 00:58:35;;;;;;;12.68;6.50;;;-3.90;95.90;;;;;;5094361;28;20028;-82
2022/01/09 01:01:02;;;;;;;12.38;7.30;;;-3.90;95.90;;;;;;5094238;28;20078;-80
2022/01/09 01:03:28;;;;;;;11.23;6.93;;;-3.90;95.90;;;;;;5094173;28;20611;-80
2022/01/09 01:05:54;;;;;;;11.38;6.30;;;-3.90;95.80;;;;;;5075078;28;20024;-80
2022/01/09 01:08:20;;;;;;;8.18;6.20;;;-3.90;95.80;;;;;;5094208;28;20496;-81
2022/01/09 01:10:46;;;;;;;9.10;4.78;;;-3.90;95.90;;;;;;5094036;28;20020;-79
2022/01/09 01:13:11;;;;;;;12.15;8.25;;;-3.90;95.80;;;;;;5094295;28;20016;-80
2022/01/09 01:15:37;;;;;;;10.93;6.20;;;-3.90;95.80;;;;;;5094104;28;20042;-81
2022/01/09 01:18:03;;;;;;;13.43;8.45;;;-3.90;95.70;;;;;;5094311;28;20024;-81
2022/01/09 01:20:31;;;;;;;14.05;6.25;;;-3.90;95.60;;;;;;5094775;28;20035;-80
2022/01/09 01:22:58;;;;;;;;;;;-4.00;95.60;;;;;;5076115;28;20097;-80
2022/01/09 01:25:25;;;;;;;11.13;6.63;;;-4.00;95.50;;;;;;5093917;28;20291;-80
2022/01/09 01:27:51;;;;;;;17.23;8.30;;;-4.00;95.50;;;;;;5093596;28;20476;-80
2022/01/09 01:30:17;;;;;;;13.43;6.63;;;-4.00;95.60;;;;;;5093626;28;20648;-81
2022/01/09 01:32:43;;;;;;;13.27;8.60;;;-3.90;95.60;;;;;;5093622;28;20104;-81
2022/01/09 01:35:11;;;;;;;15.27;10.10;;;-3.90;95.60;;;;;;5075726;28;20031;-81
2022/01/09 01:37:40;;;;;;;15.75;9.30;;;-3.90;95.60;;;;;;5075308;28;20017;-81
2022/01/09 01:40:08;;;;;;;17.75;9.23;;;-3.80;95.60;;;;;;5094333;28;20020;-80
2022/01/09 01:42:34;;;;;;;16.75;8.43;;;-3.70;95.60;;;;;;5102014;28;20054;-79
2022/01/09 01:45:00;;;;;;;14.95;8.77;;;-3.70;95.40;;;;;;5100991;28;20069;-80
2022/01/09 01:47:26;;;;;;;16.85;8.68;;;-3.70;95.40;;;;;;5093969;28;20051;-81
2022/01/09 01:49:52;;;;;;;17.17;7.50;;;-3.70;95.30;;;;;;5093318;28;20054;-80
2022/01/09 01:52:28;;;;;;;17.58;8.35;;;-3.70;95.00;;;;;;5093243;28;20028;-80
2022/01/09 01:54:54;;;;;;;14.93;9.18;;;-3.80;95.00;;;;;;5075110;28;20020;-81
2022/01/09 01:57:20;;;;;;;18.30;7.97;;;-3.80;95.10;;;;;;5093357;28;20111;-81
2022/01/09 01:59:46;;;;;;;12.75;9.05;;;-3.80;95.20;;;;;;5093113;28;20055;-80
2022/01/09 02:02:12;;;;;;;13.23;8.02;;;-3.80;95.20;;;;;;5077086;28;20067;-80
2022/01/09 02:04:38;;;;;;;11.02;6.85;;;-3.80;95.20;;;;;;5094377;28;20454;-80
2022/01/09 02:07:04;;;;;;;12.15;7.97;;;-3.80;95.20;;;;;;5094750;28;20028;-81
2022/01/09 02:09:30;;;;;;;13.98;8.50;;;-3.90;95.30;;;;;;5099638;28;20070;-80
2022/01/09 02:11:56;;;;;;;15.00;9.13;;;-3.90;95.40;;;;;;5099688;28;20036;-82
2022/01/09 02:14:22;;;;;;;16.42;7.93;;;-3.90;95.50;;;;;;5100070;28;20023;-81
2022/01/09 02:16:50;;;;;;;9.32;6.28;;;-3.90;95.40;;;;;;5096826;28;20020;-79
2022/01/09 02:19:16;;;;;;;11.65;8.32;;;-3.90;95.40;;;;;;5103094;28;20098;-78
2022/01/09 02:21:45;;;;;;;12.73;8.40;;;-3.90;95.30;;;;;;5103710;28;20027;-80
2022/01/09 02:24:14;;;;;;;16.52;9.65;;;-3.90;95.40;;;;;;5100982;28;20024;-81
2022/01/09 02:26:41;;;;;;;13.80;9.40;;;-3.90;95.50;;;;;;5095157;28;20024;-81
2022/01/09 02:29:07;;;;;;;11.35;8.00;;;-3.90;95.40;;;;;;5093120;28;20496;-82
2022/01/09 02:31:34;;;;;;;17.27;8.20;;;-3.80;95.40;;;;;;5092863;28;20016;-81
2022/01/09 02:34:01;;;;;;;10.18;6.63;;;-3.90;95.40;;;;;;5093218;28;20020;-82
2022/01/09 02:36:26;;;;;;;12.88;7.40;;;-4.00;95.40;;;;;;5092957;28;20085;-81
2022/01/09 02:38:52;;;;;;;11.05;5.82;;;-4.00;95.60;;;;;;5092645;28;20024;-81
2022/01/09 02:41:18;;;;;;;12.40;8.30;;;-4.00;95.60;;;;;;5092320;28;20020;-80
2022/01/09 02:43:44;;;;;;;17.45;8.85;;;-4.00;95.70;;;;;;5094169;28;20052;-80
2022/01/09 02:48:40;;;;;;;14.45;8.35;;;-4.00;95.70;;;;;;5095914;28;20024;-78
2022/01/09 02:51:15;;;;;;;9.18;6.05;;;-4.00;95.60;;;;;;5075006;28;20473;-80
2022/01/09 02:53:45;;;;;;;9.30;6.15;;;-4.00;95.60;;;;;;5093327;28;20329;-80
2022/01/09 02:56:11;;;;;;;12.10;7.10;;;-4.00;95.50;;;;;;5093535;28;20046;-80
2022/01/09 02:58:37;;;;;;;12.77;6.72;;;-4.10;95.50;;;;;;5093502;28;20024;-81
2022/01/09 03:01:05;;;;;;;23.40;7.95;;;-4.10;95.60;;;;;;5092627;28;20024;-81
2022/01/09 03:03:32;;;;;;;12.35;6.60;;;-4.10;95.60;;;;;;5074413;28;20127;-80
2022/01/09 03:05:58;;;;;;;9.80;5.22;;;-4.10;95.60;;;;;;5092662;28;20046;-81
2022/01/09 03:08:24;;;;;;;16.50;8.50;;;-4.10;95.60;;;;;;5093440;28;20490;-81
2022/01/09 03:10:49;;;;;;;20.25;8.27;;;-4.20;95.90;;;;;;5094710;28;20415;-82
2022/01/09 03:13:15;;;;;;;12.82;6.57;;;-4.20;95.70;;;;;;5098203;28;20040;-81
2022/01/09 03:15:43;;;;;;;16.95;8.48;;;-4.10;95.60;;;;;;5108377;28;20035;-80
2022/01/09 03:18:09;;;;;;;13.98;7.03;;;-4.20;95.60;;;;;;5093565;28;20024;-80
2022/01/09 03:20:34;;;;;;;15.38;6.35;;;-4.10;95.60;;;;;;5092262;28;20107;-80
2022/01/09 03:23:00;;;;;;;18.95;10.40;;;-4.10;95.60;;;;;;5074238;28;20107;-81
2022/01/09 03:25:27;;;;;;;14.80;9.00;;;-4.20;95.50;;;;;;5092288;28;20047;-79
2022/01/09 03:27:55;;;;;;;16.17;10.57;;;-4.10;95.50;;;;;;5077861;28;20028;-80
2022/01/09 03:30:22;;;;;;;15.55;9.13;;;-4.10;95.40;;;;;;5096385;28;20024;-80
2022/01/09 03:32:50;;;;;;;17.10;9.90;;;-4.10;95.40;;;;;;5096370;28;20020;-82
2022/01/09 03:35:18;;;;;;;19.20;10.32;;;-4.10;95.40;;;;;;5095766;28;20024;-80
2022/01/09 03:37:46;;;;;;;19.80;11.20;;;-4.10;95.40;;;;;;5096138;28;20016;-79
2022/01/09 03:40:13;;;;;;;;;;;-4.00;95.30;;;;;;5096473;28;20023;-81
2022/01/09 03:42:38;;;;;;;;;;;-4.00;95.20;;;;;;5096108;28;19924;-82
2022/01/09 03:45:06;;;;;;;33.15;9.90;;;-4.00;94.90;;;;;;5095827;28;19904;-81
2022/01/09 03:47:32;;;;;;;18.00;9.52;;;-4.00;94.80;;;;;;5095435;28;20016;-82
2022/01/09 03:49:58;;;;;;;12.73;6.57;;;-4.00;94.80;;;;;;5095950;28;20438;-81
2022/01/09 03:52:27;;;;;;;10.07;5.53;;;-4.00;94.80;;;;;;5095604;28;20020;-82
2022/01/09 03:54:54;;;;;;;16.05;9.25;;;-4.00;93.90;;;;;;5095605;28;20024;-79
2022/01/09 03:57:21;;;;;;;13.45;8.68;;;-4.10;93.90;;;;;;5095583;28;20102;-80
2022/01/09 03:59:47;;;;;;;18.65;7.70;;;-4.00;94.20;;;;;;5096001;28;20024;-81
2022/01/09 04:02:13;;;;;;;15.18;8.50;;;-4.00;93.80;;;;;;5095475;28;20047;-79
2022/01/09 04:04:39;;;;;;;8.68;4.82;;;-4.00;93.80;;;;;;5103579;28;20032;-78
2022/01/09 04:07:05;;;;;;;12.07;6.72;;;-3.90;93.50;;;;;;5106258;28;20075;-79
2022/01/09 04:09:41;;;;;;;16.58;8.68;;;-3.90;93.10;;;;;;5077978;28;20024;-81
2022/01/09 04:12:16;;;;;;;13.32;8.75;;;-4.00;93.20;;;;;;5095892;28;20020;-82
2022/01/09 04:14:44;;;;;;;10.30;7.25;;;-4.00;93.20;;;;;;5098215;28;20028;-80
2022/01/09 04:17:16;;;;;;;15.20;7.15;;;-3.90;93.00;;;;;;5096999;28;20020;-80
2022/01/09 04:19:41;;;;;;;14.43;7.20;;;-3.90;92.70;;;;;;5095634;28;20358;-81
2022/01/09 04:22:07;;;;;;;12.05;7.63;;;-3.90;92.50;;;;;;5095344;28;20089;-81
2022/01/09 04:24:33;;;;;;;11.18;5.30;;;-3.80;92.60;;;;;;5078949;28;20028;-83
2022/01/09 04:26:59;;;;;;;13.95;7.88;;;-3.80;91.50;;;;;;5097258;28;20024;-83
2022/01/09 04:29:24;;;;;;;8.60;5.97;;;-3.90;91.40;;;;;;5095501;28;20103;-82
2022/01/09 04:31:50;;;;;;;14.55;5.43;;;-3.90;90.90;;;;;;5107822;28;20028;-82
2022/01/09 04:34:16;;;;;;;10.55;6.50;;;-3.90;91.00;;;;;;5095220;28;20115;-82
2022/01/09 04:36:42;;;;;;;11.25;6.45;;;-3.90;90.90;;;;;;5076673;28;20044;-81
2022/01/09 04:39:07;;;;;;;11.32;6.13;;;-3.90;90.10;;;;;;5094602;28;20024;-82
2022/01/09 04:41:33;;;;;;;11.25;7.32;;;-3.90;90.00;;;;;;5094430;28;20055;-81
2022/01/09 04:43:59;;;;;;;10.75;5.75;;;-3.90;90.00;;;;;;5094856;28;20062;-82
2022/01/09 04:46:35;;;;;;;14.75;6.88;;;-3.90;90.20;;;;;;5094560;28;20024;-82
2022/01/09 04:49:00;;;;;;;8.52;5.05;;;-3.80;90.00;;;;;;5095082;28;20077;-83
2022/01/09 04:51:27;;;;;;;7.22;4.55;;;-3.80;86.90;;;;;;5095671;28;20023;-81
2022/01/09 04:53:53;;;;;;;8.93;4.90;;;-3.80;86.60;;;;;;5095342;28;20439;-82
2022/01/09 04:56:19;;;;;;;6.63;4.30;;;-3.80;86.10;;;;;;5098656;28;20024;-79
2022/01/09 04:58:44;;;;;;;10.55;6.38;;;-3.80;85.50;;;;;;5100443;28;20528;-81
2022/01/09 05:01:10;;;;;;;8.98;5.18;;;-3.80;84.50;;;;;;5081489;28;20053;-82
2022/01/09 05:03:36;;;;;;;7.10;5.07;;;-3.70;82.80;;;;;;5096761;28;20068;-81
2022/01/09 05:06:02;;;;;;;6.28;4.35;;;-3.70;83.50;;;;;;5095556;28;20449;-83
2022/01/09 05:08:28;;;;;;;9.27;4.57;;;-3.70;83.80;;;;;;5095114;28;20031;-82
2022/01/09 05:10:54;;;;;;;9.77;6.00;;;-3.70;83.70;;;;;;5094305;28;20138;-80
2022/01/09 05:13:19;;;;;;;6.63;4.07;;;-3.70;82.60;;;;;;5094013;28;20012;-82
2022/01/09 05:15:45;;;;;;;8.90;5.18;;;-3.70;83.20;;;;;;5094013;28;20495;-82
2022/01/09 05:18:14;;;;;;;7.97;4.95;;;-3.70;82.60;;;;;;5094585;28;20397;-80
2022/01/09 05:20:42;;;;;;;9.32;4.88;;;-3.60;83.30;;;;;;5094387;28;20054;-81
2022/01/09 05:23:07;;;;;;;;;;;-3.60;81.60;;;;;;5094919;28;20081;-81
2022/01/09 05:25:33;;;;;;;7.40;4.25;;;-3.60;82.80;;;;;;5094281;28;19904;-82
2022/01/09 05:27:59;;;;;;;10.15;5.80;;;-3.70;82.60;;;;;;5075505;28;20412;-79
2022/01/09 05:30:25;;;;;;;17.50;5.80;;;-3.60;83.10;;;;;;5080234;28;20020;-77
2022/01/09 05:32:51;;;;;;;11.27;6.05;;;-3.60;83.20;;;;;;5082516;28;20024;-80
2022/01/09 05:35:17;;;;;;;12.50;5.82;;;-3.60;82.60;;;;;;5095809;28;20073;-81
2022/01/09 05:37:43;;;;;;;6.25;4.05;;;-3.50;82.50;;;;;;5095962;28;20393;-80
2022/01/09 05:40:09;;;;;;;7.50;5.13;;;-3.50;81.70;;;;;;5097129;28;20027;-81
2022/01/09 05:42:35;;;;;;;6.53;3.55;;;-3.60;81.90;;;;;;5094828;28;20044;-81
2022/01/09 05:45:02;;;;;;;10.35;5.45;;;-3.60;81.30;;;;;;5093434;28;20027;-80
2022/01/09 05:47:28;;;;;;;;;;;-3.60;81.40;;;;;;5094202;28;20028;-82
2022/01/09 05:49:54;;;;;;;6.13;3.55;;;-3.60;81.30;;;;;;5076337;28;19904;-81
2022/01/09 05:52:20;;;;;;;10.60;5.07;;;-3.70;80.60;;;;;;5102825;28;20500;-79
2022/01/09 05:54:45;;;;;;;10.25;5.07;;;-3.70;80.60;;;;;;5100952;28;20099;-82
2022/01/09 05:57:11;;;;;;;8.75;4.43;;;-3.70;81.00;;;;;;5093771;28;20016;-83
2022/01/09 05:59:37;;;;;;;11.57;4.88;;;-3.70;81.20;;;;;;5093304;28;20051;-82
2022/01/09 06:02:03;;;;;;;6.55;5.28;;;-3.70;80.90;;;;;;5093081;28;20115;-81
2022/01/09 06:04:29;;;;;;;15.07;7.90;;;-3.70;81.00;;;;;;5092774;28;20032;-81
2022/01/09 06:06:55;;;;;;;7.38;4.70;;;-3.70;81.20;;;;;;5093875;28;20374;-81
2022/01/09 06:09:21;;;;;;;8.70;5.47;;;-3.70;80.30;;;;;;5097057;28;20028;-80
2022/01/09 06:11:47;;;;;;;9.80;4.77;;;-3.70;79.20;;;;;;5096185;28;20024;-81
2022/01/09 06:14:13;;;;;;;9.38;4.95;;;-3.70;79.30;;;;;;5093481;28;20035;-80
2022/01/09 06:16:40;;;;;;;8.63;4.82;;;-3.70;79.80;;;;;;5075204;28;20115;-81
2022/01/09 06:19:05;;;;;;;9.32;5.80;;;-3.70;80.10;;;;;;5092974;28;20431;-83
2022/01/09 06:21:31;;;;;;;6.68;4.47;;;-3.70;80.10;;;;;;5093235;28;20032;-82
2022/01/09 06:23:57;;;;;;;10.82;6.78;;;-3.80;80.50;;;;;;5093792;28;20026;-82
2022/01/09 06:26:23;;;;;;;12.05;5.88;;;-3.80;81.40;;;;;;5093311;28;20031;-83
2022/01/09 06:28:49;;;;;;;9.95;5.13;;;-3.80;81.00;;;;;;5093429;28;20059;-83
2022/01/09 06:31:14;;;;;;;13.02;5.30;;;-3.80;80.00;;;;;;5093087;28;20051;-81
2022/01/09 06:33:40;;;;;;;8.63;4.70;;;-3.70;78.90;;;;;;5093255;28;20020;-82
2022/01/09 06:36:06;;;;;;;8.70;5.78;;;-3.70;79.00;;;;;;5077103;28;20020;-79
2022/01/09 06:38:32;;;;;;;8.27;5.28;;;-3.70;78.30;;;;;;5093686;28;20112;-81
2022/01/09 06:40:58;;;;;;;8.13;5.15;;;-3.70;78.30;;;;;;5074604;28;20032;-82
2022/01/09 06:43:24;;;;;;;8.60;5.82;;;-3.60;77.20;;;;;;5092523;28;20052;-81
2022/01/09 06:45:49;;;;;;;8.10;5.65;;;-3.60;77.30;;;;;;5092789;28;20055;-81
2022/01/09 06:48:16;;;;;;;11.63;5.22;;;-3.50;77.60;;;;;;5092449;28;20020;-81
2022/01/09 06:50:41;;;;;;;12.60;6.30;;;-3.50;77.70;;;;;;5093469;28;20028;-82
2022/01/09 06:53:07;;;;;;;8.38;4.32;;;-3.50;77.60;;;;;;5094333;28;20093;-83
2022/01/09 06:55:33;;;;;;;11.05;5.63;;;-3.40;77.30;;;;;;5093387;28;20371;-84
2022/01/09 06:57:59;;;;;;;13.13;6.47;;;-3.50;77.40;;;;;;5074854;28;20078;-84
2022/01/09 07:00:25;;;;;;;10.15;6.53;;;-3.50;77.20;;;;;;5093008;28;20016;-81
2022/01/09 07:02:51;;;;;;;11.75;6.85;;;-3.50;77.60;;;;;;5077130;28;20037;-82
2022/01/09 07:05:17;;;;;;;6.60;3.70;;;-3.40;77.40;;;;;;5102757;28;20020;-80
2022/01/09 07:07:44;;;;;;;11.98;5.75;;;-3.50;77.70;;;;;;5107216;28;20089;-82
2022/01/09 07:10:11;;;;;;;10.15;6.18;;;-3.40;78.30;;;;;;5088818;28;20028;-81
2022/01/09 07:12:37;;;;;;;9.18;6.13;;;-3.40;78.20;;;;;;5102470;28;20485;-82
2022/01/09 07:15:04;;;;;;;7.90;4.70;;;-3.30;78.00;;;;;;5096772;28;20024;-83
2022/01/09 07:17:30;;;;;;;9.43;6.03;;;-3.30;76.90;;;;;;5097455;28;20027;-84
2022/01/09 07:19:56;;;;;;;14.15;7.55;;;-3.40;77.20;;;;;;5096753;28;20469;-82
2022/01/09 07:22:21;;;;;;;13.77;6.03;;;-3.40;77.80;;;;;;5096514;28;20529;-81
2022/01/09 07:24:47;;;;;;;13.25;6.10;;;-3.40;76.90;;;;;;5096712;28;20526;-83
2022/01/09 07:27:13;;;;;;;12.23;7.78;;;-3.30;77.40;;;;;;5096695;28;20028;-81
2022/01/09 07:29:39;;;;;;;14.98;7.05;;;-3.30;77.30;;;;;;5096450;28;20073;-82
2022/01/09 07:32:05;;;;;;;9.77;5.95;;;-3.20;77.10;;;;;;5078348;28;20024;-81
2022/01/09 07:34:31;;;;;;;9.65;5.88;;;-3.10;76.20;;;;;;5096541;28;20024;-84
2022/01/09 07:36:57;;;;;;;12.07;6.55;;;-3.10;76.40;;;;;;5098565;28;20032;-82
2022/01/09 07:39:22;;;;;;;10.98;5.03;;;-3.00;76.50;;;;;;5076722;28;20493;-82
2022/01/09 07:41:50;;;;;;;11.45;6.18;;;-2.90;76.30;;;;;;5084485;28;20040;-85
2022/01/09 07:44:16;;;;;;;10.50;4.68;;;-2.80;75.50;;;;;;5064039;28;20033;-83
2022/01/09 07:46:42;;;;;;;7.20;4.65;;;-2.80;75.10;;;;;;5062864;28;20028;-83
2022/01/09 07:49:07;;;;;;;10.82;5.95;;;-2.80;73.70;;;;;;5088257;28;20021;-84
2022/01/09 07:51:33;;;;;;;7.35;4.22;;;-2.80;74.70;;;;;;5079702;28;20059;-83
2022/01/09 07:53:59;;;;;;;10.50;5.63;;;-2.70;75.00;;;;;;5067071;28;20038;-83
2022/01/09 07:56:25;;;;;;;15.30;5.95;;;-2.70;74.20;;;;;;5097745;28;20025;-83
2022/01/09 07:58:50;;;;;;;7.82;4.45;;;-2.70;74.30;;;;;;5096657;28;20131;-83
2022/01/09 08:01:16;;;;;;;8.70;5.20;;;-2.80;74.00;;;;;;5088413;28;20424;-82
2022/01/09 08:03:42;;;;;;;9.50;4.57;;;-2.80;74.80;;;;;;5082803;28;20068;-82
2022/01/09 08:06:08;;;;;;;5.65;3.72;;;-2.80;75.30;;;;;;5083026;28;20028;-83
2022/01/09 08:08:33;;;;;;;11.95;6.55;;;-2.90;75.30;;;;;;5058249;28;20028;-83
2022/01/09 08:10:59;;;;;;;9.30;6.10;;;-2.90;75.50;;;;;;5091965;28;20105;-83
2022/01/09 08:13:28;;;;;;;11.52;5.28;;;-2.90;75.90;;;;;;5077657;28;20024;-81
2022/01/09 08:15:54;;;;;;;8.88;4.32;;;-2.90;76.00;;;;;;5076667;28;20050;-83
2022/01/09 08:18:19;;;;;;;10.27;5.45;;;-2.80;76.20;;;;;;5095607;28;20024;-83
2022/01/09 08:20:45;;;;;;;12.55;6.68;;;-2.80;76.60;;;;;;5077383;28;20185;-81
2022/01/09 08:23:11;;;;;;;8.70;5.57;;;-2.70;77.00;;;;;;5097112;28;20036;-83
2022/01/09 08:25:37;;;;;;;10.63;5.28;;;-2.60;76.90;;;;;;5097649;28;20020;-84
2022/01/09 08:28:03;;;;;;;7.63;5.70;;;-2.60;75.90;;;;;;5098116;28;20385;-83
2022/01/09 08:30:29;;;;;;;13.50;6.25;;;-2.60;76.00;;;;;;5096387;28;20035;-83
2022/01/09 08:32:54;;;;;;;7.07;4.53;;;-2.70;75.20;;;;;;5095457;28;20031;-83
2022/01/09 08:35:22;;;;;;;15.10;6.10;;;-2.60;76.00;;;;;;5095256;28;20020;-81
2022/01/09 08:37:48;;;;;;;6.15;4.05;;;-2.60;75.90;;;;;;5094926;28;20539;-83
2022/01/09 08:40:21;;;;;;;7.90;5.40;;;-2.60;74.90;;;;;;5094929;28;20028;-82
2022/01/09 08:42:49;;;;;;;9.82;5.90;;;-2.70;75.30;;;;;;5076602;28;20048;-82
2022/01/09 08:45:16;;;;;;;8.00;5.55;;;-2.70;74.90;;;;;;5076959;28;20016;-84
2022/01/09 08:47:42;;;;;;;7.93;6.00;;;-2.60;75.50;;;;;;5095046;28;20032;-84
2022/01/09 08:50:10;;;;;;;6.50;4.78;;;-2.60;75.70;;;;;;5077118;28;20032;-79
2022/01/09 08:52:36;;;;;;;9.18;5.03;;;-2.50;75.20;;;;;;5082526;28;20111;-82
2022/01/09 08:55:11;;;;;;;5.85;4.32;;;-2.40;75.70;;;;;;5094338;28;20480;-83
2022/01/09 08:57:36;;;;;;;9.70;5.13;;;-2.40;74.80;;;;;;5076704;28;20110;-84
2022/01/09 09:00:09;;;;;;;7.22;3.95;;;-2.40;74.70;;;;;;5075278;28;20093;-81
2022/01/09 09:02:38;;;;;;;7.30;3.95;;;-2.40;74.60;;;;;;5086160;28;20036;-81
2022/01/09 09:05:05;;;;;;;6.70;4.10;;;-2.50;73.90;;;;;;5098321;28;20074;-82
2022/01/09 09:07:31;;;;;;;10.60;6.47;;;-2.50;74.20;;;;;;5079394;28;20023;-84
2022/01/09 09:10:03;;;;;;;11.20;5.53;;;-2.50;74.70;;;;;;5095320;28;20020;-81
2022/01/09 09:12:29;;;;;;;14.30;7.28;;;-2.30;75.00;;;;;;5100402;28;20028;-81
2022/01/09 09:14:55;;;;;;;12.35;5.43;;;-2.30;75.30;;;;;;5065776;28;20104;-82
2022/01/09 09:17:23;;;;;;;11.68;6.10;;;-2.20;75.60;;;;;;5097636;28;20051;-84
2022/01/09 09:19:48;;;;;;;8.85;5.20;;;-2.20;75.50;;;;;;5102605;28;20060;-81
2022/01/09 09:22:20;;;;;;;13.77;6.40;;;-2.20;75.20;;;;;;5097807;28;20036;-84
2022/01/09 09:24:46;;;;;;;12.02;7.10;;;-2.30;74.80;;;;;;5095440;28;20020;-81
2022/01/09 09:27:12;;;;;;;14.23;6.40;;;-2.30;75.40;;;;;;5101125;28;20047;-84
2022/01/09 09:29:59;;;;;;;13.40;6.97;;;-2.40;74.80;;;;;;5098006;28;20028;-84
2022/01/09 09:32:24;;;;;;;14.00;6.57;;;-2.30;75.70;;;;;;5078840;28;20020;-83
2022/01/09 09:34:55;;;;;;;13.02;7.38;;;-2.40;74.60;;;;;;5095849;28;20094;-87
2022/01/09 09:37:22;;;;;;;15.32;7.10;;;-2.50;75.40;;;;;;5078085;28;20081;-86
2022/01/09 09:39:51;;;;;;;10.00;5.80;;;-2.40;75.90;;;;;;5094773;28;20047;-84
2022/01/09 09:42:17;;;;;;;7.88;4.43;;;-2.40;74.70;;;;;;5060571;28;20051;-84
2022/01/09 09:44:45;;;;;;;9.40;5.07;;;-2.30;75.10;;;;;;5082081;28;20020;-86
2022/01/09 09:47:12;;;;;;;10.15;6.07;;;-2.30;75.10;;;;;;5096562;28;20111;-84
2022/01/09 09:49:41;;;;;;;10.13;5.90;;;-2.40;74.80;;;;;;5097899;28;20035;-85
2022/01/09 09:52:07;;;;;;;13.82;6.40;;;-2.40;74.30;;;;;;5084467;28;20115;-84
2022/01/09 09:54:33;;;;;;;9.52;5.85;;;-2.40;75.10;;;;;;5096349;28;20476;-80
2022/01/09 09:57:02;;;;;;;13.70;8.13;;;-2.30;75.10;;;;;;5090027;28;20047;-81
2022/01/09 09:59:36;;;;;;;10.65;6.57;;;-2.20;75.10;;;;;;5087714;28;20020;-81
2022/01/09 10:02:09;;;;;;;10.85;6.85;;;-2.10;75.30;;;;;;5070325;28;20026;-81
2022/01/09 10:04:59;;;;;;;12.52;7.32;;;-2.00;75.50;;;;;;5093735;28;20054;-82
2022/01/09 10:07:27;;;;;;;12.85;6.53;;;-2.10;74.90;;;;;;5081854;28;20103;-82
2022/01/09 10:10:02;;;;;;;14.13;8.05;;;-2.20;75.20;;;;;;5093039;28;20050;-82
2022/01/09 10:12:30;;;;;;;12.10;6.65;;;-2.30;75.30;;;;;;5080271;28;20027;-83
2022/01/09 10:15:02;;;;;;;7.95;5.53;;;-2.40;75.30;;;;;;5093179;28;20477;-82
2022/01/09 10:17:28;;;;;;;15.05;6.88;;;-2.60;75.40;;;;;;5082076;28;20024;-82
2022/01/09 10:20:19;;;;;;;12.02;5.05;;;-2.70;76.00;;;;;;5092443;28;20473;-85
2022/01/09 10:22:48;;;;;;;11.45;6.18;;;-2.70;75.70;;;;;;5092988;28;20028;-84
2022/01/09 10:25:23;;;;;;;5.63;3.22;;;-2.80;76.10;;;;;;5088355;28;20024;-83
2022/01/09 10:27:51;;;;;;;13.30;6.50;;;-2.90;75.40;;;;;;5077212;28;20100;-84
2022/01/09 10:30:22;;;;;;;10.13;5.18;;;-3.00;75.50;;;;;;5088271;28;20043;-83
2022/01/09 10:32:58;;;;;;;8.48;6.15;;;-3.00;76.40;;;;;;5071941;28;20024;-86
2022/01/09 10:35:26;;;;;;;10.70;5.47;;;-2.90;76.90;;;;;;5122283;28;20111;-86
2022/01/09 10:38:17;;;;;;;10.43;5.53;;;-2.90;76.80;;;;;;5124057;28;20024;-82
2022/01/09 10:40:49;;;;;;;11.23;5.88;;;-2.80;76.70;;;;;;5118144;28;20392;-85
2022/01/09 10:43:48;;;;;;;11.13;5.55;;;-2.90;76.90;;;;;;5114442;28;20599;-84
2022/01/09 10:46:27;;;;;;;10.63;5.57;;;-2.90;76.80;;;;;;5113788;28;20049;-83
2022/01/09 10:49:47;;;;;;;7.95;5.57;;;-2.80;77.50;;;;;;5114819;28;20034;-85
2022/01/09 10:52:25;;;;;;;6.43;3.83;;;-2.70;75.50;;;;;;5012190;28;20037;-88
2022/01/09 10:54:51;;;;;;;;;;;-2.90;74.30;;;;;;5098436;28;20020;-83
2022/01/09 10:57:33;;;;;;;9.43;4.72;;;-2.90;75.10;;;;;;5095221;28;20257;-85
2022/01/09 11:00:09;;;;;;;11.15;5.22;;;-3.00;74.60;;;;;;5078314;28;20099;-85
2022/01/09 11:02:35;;;;;;;8.10;4.72;;;-3.00;74.80;;;;;;5095885;28;20032;-84
2022/01/09 11:05:04;;;;;;;12.57;5.78;;;-3.00;75.10;;;;;;5093150;28;20020;-84
2022/01/09 11:07:30;;;;;;;9.27;5.72;;;-2.90;75.30;;;;;;5094264;28;20492;-83
2022/01/09 11:09:58;;;;;;;10.80;5.63;;;-2.80;75.50;;;;;;5094814;28;20469;-82
2022/01/09 11:12:36;;;;;;;8.65;4.75;;;-2.60;75.70;;;;;;5099617;28;20020;-79
2022/01/09 11:15:08;;;;;;;;;;;-2.60;75.00;;;;;;5085064;28;20024;-81
2022/01/09 11:17:34;;;;;;;13.43;4.53;;;-2.70;74.60;;;;;;5093007;28;19922;-81
2022/01/09 11:20:03;;;;;;;10.10;5.32;;;-2.80;74.30;;;;;;5093103;28;20384;-82
2022/01/09 11:22:52;;;;;;;8.07;5.57;;;-2.80;74.70;;;;;;5094092;28;20108;-83
2022/01/09 11:25:42;;;;;;;9.30;5.25;;;-2.80;74.40;;;;;;5090268;28;20048;-82
2022/01/09 11:28:25;;;;;;;8.65;5.55;;;-2.80;75.40;;;;;;5087486;28;20025;-82
2022/01/09 11:31:15;;;;;;;11.13;6.18;;;-2.60;75.60;;;;;;5080042;28;20076;-81
2022/01/09 11:33:54;;;;;;;9.02;5.30;;;-2.50;75.40;;;;;;5090128;28;20020;-83
2022/01/09 11:36:39;;;;;;;8.00;5.70;;;-2.40;75.20;;;;;;5093330;28;20020;-80
2022/01/09 11:39:16;;;;;;;13.65;7.03;;;-2.30;74.90;;;;;;5093557;28;20028;-83
2022/01/09 11:41:44;;;;;;;11.43;5.93;;;-2.30;75.10;;;;;;5094029;28;20027;-81
2022/01/09 11:44:25;;;;;;;13.27;6.50;;;-2.50;74.10;;;;;;5093304;28;20058;-82
2022/01/09 11:46:58;;;;;;;8.02;4.07;;;-2.60;74.10;;;;;;5104713;28;20080;-85
2022/01/09 11:49:25;;;;;;;11.25;5.55;;;-2.80;73.30;;;;;;5109327;28;20077;-84
2022/01/09 11:51:59;;;;;;;10.57;5.93;;;-3.00;73.50;;;;;;5107758;28;20066;-85
2022/01/09 11:54:26;;;;;;;9.25;6.30;;;-3.10;74.20;;;;;;5086276;28;20039;-89
2022/01/09 11:56:57;;;;;;;11.82;6.18;;;-3.10;74.70;;;;;;5112883;28;20489;-91
2022/01/09 11:59:39;;;;;;;10.13;5.10;;;-3.00;74.20;;;;;;5095818;28;20029;-91
2022/01/09 12:02:16;;;;;;;14.07;5.70;;;-3.00;74.50;;;;;;5087210;28;20048;-88
2022/01/09 12:04:45;;;;;;;7.40;4.63;;;-3.10;74.40;;;;;;5076514;28;20059;-85
2022/01/09 12:07:11;;;;;;;12.73;6.53;;;-3.00;74.60;;;;;;5079404;28;20016;-90
2022/01/09 12:09:41;;;;;;;10.52;5.78;;;-3.10;73.20;;;;;;5065894;28;20027;-83
2022/01/09 12:12:12;;;;;;;9.50;6.05;;;-3.20;73.50;;;;;;5092536;28;20051;-85
2022/01/09 12:15:05;;;;;;;12.35;8.23;;;-3.20;74.50;;;;;;5096850;28;20028;-86
2022/01/09 12:17:36;;;;;;;10.18;4.65;;;-3.10;74.60;;;;;;5064144;28;20032;-90
2022/01/09 12:20:13;;;;;;;9.00;5.65;;;-3.10;72.80;;;;;;5077155;28;20043;-93
2022/01/09 12:22:46;;;;;;;9.98;5.95;;;-3.20;73.10;;;;;;5093939;28;20036;-90
2022/01/09 12:25:45;;;;;;;11.63;5.85;;;-3.20;73.50;;;;;;5085023;28;20024;-90
2022/01/09 12:28:20;;;;;;;14.48;7.22;;;-3.20;73.60;;;;;;4985460;28;20477;-92
2022/01/09 12:30:58;;;;;;;12.25;6.38;;;-3.20;73.80;;;;;;5002019;28;20113;-94
2022/01/09 12:33:28;;;;;;;13.95;7.80;;;-3.10;74.30;;;;;;5000634;28;20038;-91
2022/01/09 12:36:08;;;;;;;11.00;6.35;;;-3.00;74.10;;;;;;5002384;28;20597;-93
2022/01/09 12:38:40;;;;;;;13.00;7.03;;;-3.00;74.10;;;;;;4998997;28;20046;-89
2022/01/09 12:41:07;;;;;;;13.18;7.50;;;-2.90;74.30;;;;;;4998507;28;20030;-91
2022/01/09 12:43:37;;;;;;;10.23;6.55;;;-2.90;73.90;;;;;;5001230;28;20055;-91
2022/01/09 12:46:21;;;;;;;14.27;6.40;;;-3.00;73.90;;;;;;4945906;29;20055;-92
2022/01/09 12:48:56;;;;;;;11.32;6.95;;;-3.00;73.70;;;;;;4957380;29;20070;-90
2022/01/09 12:51:24;;;;;;;12.60;7.90;;;-3.00;73.50;;;;;;4952140;29;20036;-91